sensor_id;sensor_type;location;lat;lon;timestamp;temperature;humidity
44537;DHT22;30245;51.966;6.292;2023-07-20T00:01:02;24.20;51.90
44537;DHT22;30245;51.966;6.292;2023-07-20T00:03:28;24.20;51.90
44537;DHT22;30245;51.966;6.292;2023-07-20T00:05:53;24.20;51.90
44537;DHT22;30245;51.966;6.292;2023-07-20T00:08:19;24.20;52.00
44537;DHT22;30245;51.966;6.292;2023-07-20T00:10:45;24.20;52.10
44537;DHT22;30245;51.966;6.292;2023-07-20T00:13:11;24.20;52.20
44537;DHT22;30245;51.966;6.292;2023-07-20T00:15:37;24.10;52.30
44537;DHT22;30245;51.966;6.292;2023-07-20T00:18:03;24.10;52.20
44537;DHT22;30245;51.966;6.292;2023-07-20T00:20:29;24.10;52.20
44537;DHT22;30245;51.966;6.292;2023-07-20T00:22:55;24.10;52.10
44537;DHT22;30245;51.966;6.292;2023-07-20T00:25:23;24.10;52.10
44537;DHT22;30245;51.966;6.292;2023-07-20T00:27:49;24.00;52.00
44537;DHT22;30245;51.966;6.292;2023-07-20T00:30:15;24.00;52.10
44537;DHT22;30245;51.966;6.292;2023-07-20T00:32:42;24.00;52.20
44537;DHT22;30245;51.966;6.292;2023-07-20T00:35:08;23.90;52.30
44537;DHT22;30245;51.966;6.292;2023-07-20T00:37:33;23.80;52.40
44537;DHT22;30245;51.966;6.292;2023-07-20T00:39:59;23.80;52.60
44537;DHT22;30245;51.966;6.292;2023-07-20T00:42:24;23.70;52.60
44537;DHT22;30245;51.966;6.292;2023-07-20T00:44:50;23.70;52.70
44537;DHT22;30245;51.966;6.292;2023-07-20T00:47:16;23.70;52.70
44537;DHT22;30245;51.966;6.292;2023-07-20T00:49:42;23.70;52.70
44537;DHT22;30245;51.966;6.292;2023-07-20T00:52:10;23.70;52.80
44537;DHT22;30245;51.966;6.292;2023-07-20T00:54:40;23.70;52.90
44537;DHT22;30245;51.966;6.292;2023-07-20T00:57:07;23.60;52.90
44537;DHT22;30245;51.966;6.292;2023-07-20T00:59:34;23.70;53.00
44537;DHT22;30245;51.966;6.292;2023-07-20T01:02:01;23.60;53.00
44537;DHT22;30245;51.966;6.292;2023-07-20T01:04:27;23.60;53.10
44537;DHT22;30245;51.966;6.292;2023-07-20T01:07:03;23.60;53.30
44537;DHT22;30245;51.966;6.292;2023-07-20T01:09:39;23.50;53.50
44537;DHT22;30245;51.966;6.292;2023-07-20T01:12:17;23.50;53.60
44537;DHT22;30245;51.966;6.292;2023-07-20T01:14:44;23.50;53.60
44537;DHT22;30245;51.966;6.292;2023-07-20T01:17:10;23.50;53.70
44537;DHT22;30245;51.966;6.292;2023-07-20T01:19:36;23.40;53.80
44537;DHT22;30245;51.966;6.292;2023-07-20T01:22:16;23.40;53.90
44537;DHT22;30245;51.966;6.292;2023-07-20T01:27:59;23.30;54.10
44537;DHT22;30245;51.966;6.292;2023-07-20T01:33:33;23.30;54.30
44537;DHT22;30245;51.966;6.292;2023-07-20T01:35:59;23.20;54.40
44537;DHT22;30245;51.966;6.292;2023-07-20T01:38:26;23.20;54.60
44537;DHT22;30245;51.966;6.292;2023-07-20T01:40:52;23.20;54.70
44537;DHT22;30245;51.966;6.292;2023-07-20T01:43:18;23.20;54.80
44537;DHT22;30245;51.966;6.292;2023-07-20T01:45:44;23.10;54.90
44537;DHT22;30245;51.966;6.292;2023-07-20T01:48:10;23.20;55.00
44537;DHT22;30245;51.966;6.292;2023-07-20T01:50:36;23.20;55.00
44537;DHT22;30245;51.966;6.292;2023-07-20T01:53:02;23.20;55.10
44537;DHT22;30245;51.966;6.292;2023-07-20T01:55:27;23.20;55.20
44537;DHT22;30245;51.966;6.292;2023-07-20T01:57:55;23.20;55.30
44537;DHT22;30245;51.966;6.292;2023-07-20T02:00:21;23.30;55.30
44537;DHT22;30245;51.966;6.292;2023-07-20T02:02:49;23.30;55.30
44537;DHT22;30245;51.966;6.292;2023-07-20T02:05:15;23.40;55.00
44537;DHT22;30245;51.966;6.292;2023-07-20T02:07:40;23.30;54.80
44537;DHT22;30245;51.966;6.292;2023-07-20T02:10:06;23.30;55.00
44537;DHT22;30245;51.966;6.292;2023-07-20T02:12:32;23.30;55.00
44537;DHT22;30245;51.966;6.292;2023-07-20T02:14:57;23.20;55.00
44537;DHT22;30245;51.966;6.292;2023-07-20T02:17:23;23.20;55.10
44537;DHT22;30245;51.966;6.292;2023-07-20T02:19:56;23.20;55.20
44537;DHT22;30245;51.966;6.292;2023-07-20T02:22:23;23.20;55.30
44537;DHT22;30245;51.966;6.292;2023-07-20T02:24:49;23.20;55.30
44537;DHT22;30245;51.966;6.292;2023-07-20T02:27:15;23.20;55.30
44537;DHT22;30245;51.966;6.292;2023-07-20T02:29:42;23.20;55.40
44537;DHT22;30245;51.966;6.292;2023-07-20T02:32:08;23.20;55.40
44537;DHT22;30245;51.966;6.292;2023-07-20T02:34:35;23.10;55.40
44537;DHT22;30245;51.966;6.292;2023-07-20T02:37:01;23.00;55.30
44537;DHT22;30245;51.966;6.292;2023-07-20T02:39:29;23.00;55.50
44537;DHT22;30245;51.966;6.292;2023-07-20T02:41:56;23.00;55.70
44537;DHT22;30245;51.966;6.292;2023-07-20T02:44:21;22.90;55.60
44537;DHT22;30245;51.966;6.292;2023-07-20T02:46:47;22.90;55.70
44537;DHT22;30245;51.966;6.292;2023-07-20T02:49:15;22.80;55.70
44537;DHT22;30245;51.966;6.292;2023-07-20T02:51:41;22.70;55.80
44537;DHT22;30245;51.966;6.292;2023-07-20T02:54:07;22.70;55.80
44537;DHT22;30245;51.966;6.292;2023-07-20T02:56:32;22.70;55.80
44537;DHT22;30245;51.966;6.292;2023-07-20T02:58:58;22.70;55.90
44537;DHT22;30245;51.966;6.292;2023-07-20T03:01:23;22.70;55.80
44537;DHT22;30245;51.966;6.292;2023-07-20T03:03:49;22.70;55.80
44537;DHT22;30245;51.966;6.292;2023-07-20T03:06:15;22.70;55.80
44537;DHT22;30245;51.966;6.292;2023-07-20T03:08:42;22.60;55.80
44537;DHT22;30245;51.966;6.292;2023-07-20T03:11:15;22.60;55.80
44537;DHT22;30245;51.966;6.292;2023-07-20T03:13:42;22.60;55.70
44537;DHT22;30245;51.966;6.292;2023-07-20T03:16:08;22.60;55.70
44537;DHT22;30245;51.966;6.292;2023-07-20T03:18:39;22.60;55.90
44537;DHT22;30245;51.966;6.292;2023-07-20T03:21:05;22.60;55.70
44537;DHT22;30245;51.966;6.292;2023-07-20T03:23:31;22.50;55.50
44537;DHT22;30245;51.966;6.292;2023-07-20T03:25:57;22.50;55.40
44537;DHT22;30245;51.966;6.292;2023-07-20T03:28:23;22.50;55.60
44537;DHT22;30245;51.966;6.292;2023-07-20T03:30:55;22.40;55.70
44537;DHT22;30245;51.966;6.292;2023-07-20T03:33:28;22.30;55.90
44537;DHT22;30245;51.966;6.292;2023-07-20T03:35:55;22.30;56.00
44537;DHT22;30245;51.966;6.292;2023-07-20T03:38:21;22.30;56.00
44537;DHT22;30245;51.966;6.292;2023-07-20T03:40:54;22.30;56.00
44537;DHT22;30245;51.966;6.292;2023-07-20T03:43:21;22.20;56.00
44537;DHT22;30245;51.966;6.292;2023-07-20T03:45:47;22.20;56.00
44537;DHT22;30245;51.966;6.292;2023-07-20T03:48:17;22.20;56.10
44537;DHT22;30245;51.966;6.292;2023-07-20T03:50:47;22.10;56.20
44537;DHT22;30245;51.966;6.292;2023-07-20T03:53:13;22.20;56.10
44537;DHT22;30245;51.966;6.292;2023-07-20T03:55:46;22.20;56.10
44537;DHT22;30245;51.966;6.292;2023-07-20T03:58:13;22.20;56.10
44537;DHT22;30245;51.966;6.292;2023-07-20T04:00:39;22.10;56.60
44537;DHT22;30245;51.966;6.292;2023-07-20T04:03:06;22.10;56.10
44537;DHT22;30245;51.966;6.292;2023-07-20T04:05:31;22.10;56.20
44537;DHT22;30245;51.966;6.292;2023-07-20T04:07:57;22.10;56.20
44537;DHT22;30245;51.966;6.292;2023-07-20T04:10:22;22.10;56.20
44537;DHT22;30245;51.966;6.292;2023-07-20T04:12:48;22.20;56.30
44537;DHT22;30245;51.966;6.292;2023-07-20T04:15:14;22.10;56.20
44537;DHT22;30245;51.966;6.292;2023-07-20T04:17:40;22.20;56.20
44537;DHT22;30245;51.966;6.292;2023-07-20T04:20:09;22.20;56.30
44537;DHT22;30245;51.966;6.292;2023-07-20T04:22:34;22.20;56.30
44537;DHT22;30245;51.966;6.292;2023-07-20T04:25:00;22.10;56.20
44537;DHT22;30245;51.966;6.292;2023-07-20T04:27:26;22.10;56.20
44537;DHT22;30245;51.966;6.292;2023-07-20T04:29:52;22.10;56.20
44537;DHT22;30245;51.966;6.292;2023-07-20T04:32:18;22.10;56.30
44537;DHT22;30245;51.966;6.292;2023-07-20T04:34:43;22.10;56.30
44537;DHT22;30245;51.966;6.292;2023-07-20T04:37:09;22.10;56.40
44537;DHT22;30245;51.966;6.292;2023-07-20T04:39:34;22.00;56.40
44537;DHT22;30245;51.966;6.292;2023-07-20T04:42:00;22.00;56.50
44537;DHT22;30245;51.966;6.292;2023-07-20T04:44:26;22.00;56.50
44537;DHT22;30245;51.966;6.292;2023-07-20T04:46:51;22.00;56.40
44537;DHT22;30245;51.966;6.292;2023-07-20T04:49:17;22.00;56.40
44537;DHT22;30245;51.966;6.292;2023-07-20T04:51:42;22.00;56.30
44537;DHT22;30245;51.966;6.292;2023-07-20T04:54:08;22.00;56.40
44537;DHT22;30245;51.966;6.292;2023-07-20T04:56:34;22.00;56.50
44537;DHT22;30245;51.966;6.292;2023-07-20T04:58:59;22.00;56.40
44537;DHT22;30245;51.966;6.292;2023-07-20T05:01:25;22.00;56.40
44537;DHT22;30245;51.966;6.292;2023-07-20T05:03:52;22.00;56.30
44537;DHT22;30245;51.966;6.292;2023-07-20T05:06:18;22.00;56.40
44537;DHT22;30245;51.966;6.292;2023-07-20T05:08:43;22.00;56.40
44537;DHT22;30245;51.966;6.292;2023-07-20T05:11:10;22.00;56.40
44537;DHT22;30245;51.966;6.292;2023-07-20T05:13:36;22.00;56.30
44537;DHT22;30245;51.966;6.292;2023-07-20T05:16:02;21.90;56.40
44537;DHT22;30245;51.966;6.292;2023-07-20T05:18:27;21.90;56.50
44537;DHT22;30245;51.966;6.292;2023-07-20T05:20:53;22.00;56.50
44537;DHT22;30245;51.966;6.292;2023-07-20T05:23:21;22.00;56.40
44537;DHT22;30245;51.966;6.292;2023-07-20T05:25:47;22.00;56.30
44537;DHT22;30245;51.966;6.292;2023-07-20T05:28:13;22.00;56.30
44537;DHT22;30245;51.966;6.292;2023-07-20T05:30:40;22.10;56.30
44537;DHT22;30245;51.966;6.292;2023-07-20T05:33:05;22.00;56.30
44537;DHT22;30245;51.966;6.292;2023-07-20T05:35:31;22.10;56.40
44537;DHT22;30245;51.966;6.292;2023-07-20T05:37:56;22.10;56.40
44537;DHT22;30245;51.966;6.292;2023-07-20T05:40:22;22.10;56.30
44537;DHT22;30245;51.966;6.292;2023-07-20T05:42:48;22.20;56.20
44537;DHT22;30245;51.966;6.292;2023-07-20T05:45:17;22.30;56.80
44537;DHT22;30245;51.966;6.292;2023-07-20T05:47:43;22.30;56.00
44537;DHT22;30245;51.966;6.292;2023-07-20T05:50:09;22.30;56.00
44537;DHT22;30245;51.966;6.292;2023-07-20T05:52:35;22.30;55.90
44537;DHT22;30245;51.966;6.292;2023-07-20T05:55:01;22.30;55.90
44537;DHT22;30245;51.966;6.292;2023-07-20T05:57:26;22.40;55.80
44537;DHT22;30245;51.966;6.292;2023-07-20T05:59:52;22.40;55.80
44537;DHT22;30245;51.966;6.292;2023-07-20T06:02:18;22.40;55.70
44537;DHT22;30245;51.966;6.292;2023-07-20T06:04:43;22.40;55.70
44537;DHT22;30245;51.966;6.292;2023-07-20T06:07:09;22.40;55.40
44537;DHT22;30245;51.966;6.292;2023-07-20T06:09:35;22.40;55.30
44537;DHT22;30245;51.966;6.292;2023-07-20T06:12:01;22.50;55.30
44537;DHT22;30245;51.966;6.292;2023-07-20T06:14:26;22.40;55.10
44537;DHT22;30245;51.966;6.292;2023-07-20T06:16:52;22.50;55.10
44537;DHT22;30245;51.966;6.292;2023-07-20T06:19:18;22.40;55.10
44537;DHT22;30245;51.966;6.292;2023-07-20T06:21:43;22.50;55.00
44537;DHT22;30245;51.966;6.292;2023-07-20T06:24:09;22.60;54.80
44537;DHT22;30245;51.966;6.292;2023-07-20T06:26:34;22.70;54.50
44537;DHT22;30245;51.966;6.292;2023-07-20T06:29:05;22.70;54.20
44537;DHT22;30245;51.966;6.292;2023-07-20T06:31:32;22.80;54.60
44537;DHT22;30245;51.966;6.292;2023-07-20T06:33:57;22.70;53.70
44537;DHT22;30245;51.966;6.292;2023-07-20T06:36:23;22.80;53.70
44537;DHT22;30245;51.966;6.292;2023-07-20T06:38:48;22.80;53.50
44537;DHT22;30245;51.966;6.292;2023-07-20T06:41:14;22.80;53.40
44537;DHT22;30245;51.966;6.292;2023-07-20T06:43:40;22.90;53.30
44537;DHT22;30245;51.966;6.292;2023-07-20T06:46:05;22.90;53.10
44537;DHT22;30245;51.966;6.292;2023-07-20T06:48:31;23.00;52.90
44537;DHT22;30245;51.966;6.292;2023-07-20T06:50:56;22.90;52.80
44537;DHT22;30245;51.966;6.292;2023-07-20T06:53:22;23.00;52.70
44537;DHT22;30245;51.966;6.292;2023-07-20T06:55:48;23.00;52.60
44537;DHT22;30245;51.966;6.292;2023-07-20T06:58:14;23.10;52.40
44537;DHT22;30245;51.966;6.292;2023-07-20T07:00:39;23.10;52.20
44537;DHT22;30245;51.966;6.292;2023-07-20T07:03:05;23.20;52.00
44537;DHT22;30245;51.966;6.292;2023-07-20T07:05:30;23.30;51.80
44537;DHT22;30245;51.966;6.292;2023-07-20T07:07:56;23.30;51.50
44537;DHT22;30245;51.966;6.292;2023-07-20T07:10:22;23.30;51.40
44537;DHT22;30245;51.966;6.292;2023-07-20T07:12:47;23.40;51.30
44537;DHT22;30245;51.966;6.292;2023-07-20T07:15:13;23.40;51.10
44537;DHT22;30245;51.966;6.292;2023-07-20T07:17:38;23.40;51.40
44537;DHT22;30245;51.966;6.292;2023-07-20T07:20:08;23.40;50.80
44537;DHT22;30245;51.966;6.292;2023-07-20T07:22:34;23.50;50.60
44537;DHT22;30245;51.966;6.292;2023-07-20T07:24:59;23.50;50.30
44537;DHT22;30245;51.966;6.292;2023-07-20T07:27:25;23.60;50.30
44537;DHT22;30245;51.966;6.292;2023-07-20T07:29:50;23.60;50.10
44537;DHT22;30245;51.966;6.292;2023-07-20T07:32:16;23.70;50.00
44537;DHT22;30245;51.966;6.292;2023-07-20T07:34:43;23.70;49.80
44537;DHT22;30245;51.966;6.292;2023-07-20T07:37:09;23.80;49.50
44537;DHT22;30245;51.966;6.292;2023-07-20T07:39:34;23.90;49.30
44537;DHT22;30245;51.966;6.292;2023-07-20T07:42:00;24.00;49.10
44537;DHT22;30245;51.966;6.292;2023-07-20T07:44:26;24.00;48.90
44537;DHT22;30245;51.966;6.292;2023-07-20T07:46:52;24.10;48.50
44537;DHT22;30245;51.966;6.292;2023-07-20T07:49:18;24.20;47.90
44537;DHT22;30245;51.966;6.292;2023-07-20T07:51:45;24.30;47.50
44537;DHT22;30245;51.966;6.292;2023-07-20T07:54:10;24.30;47.30
44537;DHT22;30245;51.966;6.292;2023-07-20T07:56:36;24.30;47.10
44537;DHT22;30245;51.966;6.292;2023-07-20T07:59:01;24.30;46.80
44537;DHT22;30245;51.966;6.292;2023-07-20T08:01:28;24.40;46.50
44537;DHT22;30245;51.966;6.292;2023-07-20T08:03:54;24.40;46.00
44537;DHT22;30245;51.966;6.292;2023-07-20T08:06:19;24.50;45.80
44537;DHT22;30245;51.966;6.292;2023-07-20T08:08:45;24.50;45.60
44537;DHT22;30245;51.966;6.292;2023-07-20T08:11:11;24.50;45.30
44537;DHT22;30245;51.966;6.292;2023-07-20T08:13:36;24.50;45.20
44537;DHT22;30245;51.966;6.292;2023-07-20T08:16:02;24.60;45.00
44537;DHT22;30245;51.966;6.292;2023-07-20T08:18:28;24.70;44.80
44537;DHT22;30245;51.966;6.292;2023-07-20T08:20:54;24.80;44.70
44537;DHT22;30245;51.966;6.292;2023-07-20T08:23:20;24.80;44.30
44537;DHT22;30245;51.966;6.292;2023-07-20T08:25:45;24.80;44.20
44537;DHT22;30245;51.966;6.292;2023-07-20T08:28:13;24.90;44.00
44537;DHT22;30245;51.966;6.292;2023-07-20T08:30:41;24.90;43.70
44537;DHT22;30245;51.966;6.292;2023-07-20T08:33:07;25.00;43.50
44537;DHT22;30245;51.966;6.292;2023-07-20T08:35:33;25.10;43.30
44537;DHT22;30245;51.966;6.292;2023-07-20T08:37:59;25.20;43.70
44537;DHT22;30245;51.966;6.292;2023-07-20T08:40:24;25.30;42.90
44537;DHT22;30245;51.966;6.292;2023-07-20T08:42:50;25.50;42.80
44537;DHT22;30245;51.966;6.292;2023-07-20T08:45:16;25.50;42.70
44537;DHT22;30245;51.966;6.292;2023-07-20T08:47:43;25.60;42.60
44537;DHT22;30245;51.966;6.292;2023-07-20T08:50:11;25.70;42.40
44537;DHT22;30245;51.966;6.292;2023-07-20T08:52:38;25.80;42.30
44537;DHT22;30245;51.966;6.292;2023-07-20T08:55:04;26.00;42.20
44537;DHT22;30245;51.966;6.292;2023-07-20T08:57:33;26.10;42.00
44537;DHT22;30245;51.966;6.292;2023-07-20T09:00:01;26.10;41.80
44537;DHT22;30245;51.966;6.292;2023-07-20T09:02:35;26.10;41.70
44537;DHT22;30245;51.966;6.292;2023-07-20T09:05:00;26.20;41.70
44537;DHT22;30245;51.966;6.292;2023-07-20T09:07:26;26.30;41.50
44537;DHT22;30245;51.966;6.292;2023-07-20T09:09:52;26.30;41.30
44537;DHT22;30245;51.966;6.292;2023-07-20T09:12:17;26.30;41.20
44537;DHT22;30245;51.966;6.292;2023-07-20T09:14:44;26.30;41.10
44537;DHT22;30245;51.966;6.292;2023-07-20T09:17:13;26.20;41.20
44537;DHT22;30245;51.966;6.292;2023-07-20T09:19:46;26.00;41.10
44537;DHT22;30245;51.966;6.292;2023-07-20T09:22:11;26.00;41.10
44537;DHT22;30245;51.966;6.292;2023-07-20T09:24:37;26.00;41.00
44537;DHT22;30245;51.966;6.292;2023-07-20T09:27:03;26.00;40.60
44537;DHT22;30245;51.966;6.292;2023-07-20T09:29:29;26.10;40.50
44537;DHT22;30245;51.966;6.292;2023-07-20T09:31:59;26.10;40.40
44537;DHT22;30245;51.966;6.292;2023-07-20T09:34:31;26.20;40.30
44537;DHT22;30245;51.966;6.292;2023-07-20T09:36:58;26.20;40.20
44537;DHT22;30245;51.966;6.292;2023-07-20T09:39:24;26.30;40.20
44537;DHT22;30245;51.966;6.292;2023-07-20T09:41:51;26.40;39.70
44537;DHT22;30245;51.966;6.292;2023-07-20T09:44:17;26.60;39.60
44537;DHT22;30245;51.966;6.292;2023-07-20T09:46:47;26.70;39.50
44537;DHT22;30245;51.966;6.292;2023-07-20T09:49:13;26.90;39.30
44537;DHT22;30245;51.966;6.292;2023-07-20T09:51:40;27.00;39.10
44537;DHT22;30245;51.966;6.292;2023-07-20T09:54:07;27.20;39.00
44537;DHT22;30245;51.966;6.292;2023-07-20T09:56:33;27.20;38.80
44537;DHT22;30245;51.966;6.292;2023-07-20T09:58:59;27.20;38.90
44537;DHT22;30245;51.966;6.292;2023-07-20T10:01:26;27.20;38.90
44537;DHT22;30245;51.966;6.292;2023-07-20T10:03:58;27.30;38.70
44537;DHT22;30245;51.966;6.292;2023-07-20T10:06:24;27.40;38.50
44537;DHT22;30245;51.966;6.292;2023-07-20T10:08:53;27.50;38.30
44537;DHT22;30245;51.966;6.292;2023-07-20T10:11:22;27.50;38.30
44537;DHT22;30245;51.966;6.292;2023-07-20T10:13:51;27.60;38.20
44537;DHT22;30245;51.966;6.292;2023-07-20T10:16:50;27.70;37.90
44537;DHT22;30245;51.966;6.292;2023-07-20T10:19:27;27.90;37.80
44537;DHT22;30245;51.966;6.292;2023-07-20T10:22:00;28.00;37.50
44537;DHT22;30245;51.966;6.292;2023-07-20T10:24:28;28.20;37.30
44537;DHT22;30245;51.966;6.292;2023-07-20T10:26:55;28.40;37.00
44537;DHT22;30245;51.966;6.292;2023-07-20T10:29:22;28.40;36.60
44537;DHT22;30245;51.966;6.292;2023-07-20T10:31:48;28.40;36.50
44537;DHT22;30245;51.966;6.292;2023-07-20T10:34:15;28.50;36.40
44537;DHT22;30245;51.966;6.292;2023-07-20T10:36:45;28.50;36.40
44537;DHT22;30245;51.966;6.292;2023-07-20T10:39:23;28.60;36.20
44537;DHT22;30245;51.966;6.292;2023-07-20T10:41:50;28.60;36.10
44537;DHT22;30245;51.966;6.292;2023-07-20T10:44:19;28.70;36.20
44537;DHT22;30245;51.966;6.292;2023-07-20T10:46:45;28.70;36.10
44537;DHT22;30245;51.966;6.292;2023-07-20T10:49:13;28.80;36.00
44537;DHT22;30245;51.966;6.292;2023-07-20T10:51:46;28.90;36.00
44537;DHT22;30245;51.966;6.292;2023-07-20T10:56:42;29.10;35.40
44537;DHT22;30245;51.966;6.292;2023-07-20T10:59:36;29.00;35.30
44537;DHT22;30245;51.966;6.292;2023-07-20T11:02:08;28.70;35.60
44537;DHT22;30245;51.966;6.292;2023-07-20T11:04:45;28.40;35.70
44537;DHT22;30245;51.966;6.292;2023-07-20T11:07:35;28.40;36.00
44537;DHT22;30245;51.966;6.292;2023-07-20T11:10:15;28.40;35.80
44537;DHT22;30245;51.966;6.292;2023-07-20T11:12:41;28.40;35.90
44537;DHT22;30245;51.966;6.292;2023-07-20T11:15:06;28.60;35.60
44537;DHT22;30245;51.966;6.292;2023-07-20T11:17:32;28.80;35.60
44537;DHT22;30245;51.966;6.292;2023-07-20T11:19:59;29.10;35.20
44537;DHT22;30245;51.966;6.292;2023-07-20T11:22:30;29.40;34.30
44537;DHT22;30245;51.966;6.292;2023-07-20T11:24:57;29.40;34.00
44537;DHT22;30245;51.966;6.292;2023-07-20T11:27:23;29.50;34.00
44537;DHT22;30245;51.966;6.292;2023-07-20T11:29:49;29.60;33.70
44537;DHT22;30245;51.966;6.292;2023-07-20T11:32:22;29.60;33.70
44537;DHT22;30245;51.966;6.292;2023-07-20T11:34:48;29.50;33.80
44537;DHT22;30245;51.966;6.292;2023-07-20T11:37:14;29.50;33.80
44537;DHT22;30245;51.966;6.292;2023-07-20T11:39:40;29.50;33.70
44537;DHT22;30245;51.966;6.292;2023-07-20T11:42:06;29.40;33.70
44537;DHT22;30245;51.966;6.292;2023-07-20T11:44:34;29.40;33.80
44537;DHT22;30245;51.966;6.292;2023-07-20T11:47:04;29.50;33.80
44537;DHT22;30245;51.966;6.292;2023-07-20T11:49:34;29.80;33.80
44537;DHT22;30245;51.966;6.292;2023-07-20T11:52:00;30.10;33.60
44537;DHT22;30245;51.966;6.292;2023-07-20T11:54:27;30.40;33.20
44537;DHT22;30245;51.966;6.292;2023-07-20T11:56:55;30.70;32.90
44537;DHT22;30245;51.966;6.292;2023-07-20T11:59:21;31.00;32.70
44537;DHT22;30245;51.966;6.292;2023-07-20T12:01:47;31.10;32.60
44537;DHT22;30245;51.966;6.292;2023-07-20T12:04:13;31.20;32.50
44537;DHT22;30245;51.966;6.292;2023-07-20T12:06:39;31.30;32.30
44537;DHT22;30245;51.966;6.292;2023-07-20T12:09:04;31.20;32.00
44537;DHT22;30245;51.966;6.292;2023-07-20T12:11:37;31.30;32.10
44537;DHT22;30245;51.966;6.292;2023-07-20T12:14:06;31.40;31.90
44537;DHT22;30245;51.966;6.292;2023-07-20T12:16:32;31.50;31.70
44537;DHT22;30245;51.966;6.292;2023-07-20T12:21:28;31.20;31.40
44537;DHT22;30245;51.966;6.292;2023-07-20T12:23:56;30.90;31.70
44537;DHT22;30245;51.966;6.292;2023-07-20T12:26:22;30.80;31.70
44537;DHT22;30245;51.966;6.292;2023-07-20T12:28:49;30.90;31.60
44537;DHT22;30245;51.966;6.292;2023-07-20T12:31:15;30.90;31.60
44537;DHT22;30245;51.966;6.292;2023-07-20T12:33:41;31.00;31.30
44537;DHT22;30245;51.966;6.292;2023-07-20T12:36:08;31.10;31.10
44537;DHT22;30245;51.966;6.292;2023-07-20T12:38:33;31.00;31.30
44537;DHT22;30245;51.966;6.292;2023-07-20T12:41:00;30.80;31.40
44537;DHT22;30245;51.966;6.292;2023-07-20T12:43:26;30.70;31.70
44537;DHT22;30245;51.966;6.292;2023-07-20T12:45:52;30.50;32.00
44537;DHT22;30245;51.966;6.292;2023-07-20T12:48:18;30.30;32.10
44537;DHT22;30245;51.966;6.292;2023-07-20T12:50:44;30.10;32.40
44537;DHT22;30245;51.966;6.292;2023-07-20T12:53:10;30.00;32.40
44537;DHT22;30245;51.966;6.292;2023-07-20T12:55:35;29.90;32.30
44537;DHT22;30245;51.966;6.292;2023-07-20T12:58:01;30.00;32.40
44537;DHT22;30245;51.966;6.292;2023-07-20T13:00:26;30.00;32.50
44537;DHT22;30245;51.966;6.292;2023-07-20T13:02:52;29.90;32.40
44537;DHT22;30245;51.966;6.292;2023-07-20T13:05:18;29.80;32.70
44537;DHT22;30245;51.966;6.292;2023-07-20T13:07:44;29.70;32.80
44537;DHT22;30245;51.966;6.292;2023-07-20T13:10:10;29.60;32.80
44537;DHT22;30245;51.966;6.292;2023-07-20T13:12:37;29.50;32.80
44537;DHT22;30245;51.966;6.292;2023-07-20T13:15:04;29.50;32.70
44537;DHT22;30245;51.966;6.292;2023-07-20T13:17:37;29.60;32.80
44537;DHT22;30245;51.966;6.292;2023-07-20T13:20:04;29.60;32.90
44537;DHT22;30245;51.966;6.292;2023-07-20T13:22:31;29.60;32.90
44537;DHT22;30245;51.966;6.292;2023-07-20T13:24:57;29.60;32.90
44537;DHT22;30245;51.966;6.292;2023-07-20T13:27:23;29.70;33.00
44537;DHT22;30245;51.966;6.292;2023-07-20T13:29:51;29.60;32.90
44537;DHT22;30245;51.966;6.292;2023-07-20T13:32:17;29.60;33.70
44537;DHT22;30245;51.966;6.292;2023-07-20T13:34:44;29.50;33.20
44537;DHT22;30245;51.966;6.292;2023-07-20T13:37:10;29.50;33.30
44537;DHT22;30245;51.966;6.292;2023-07-20T13:39:36;29.40;33.50
44537;DHT22;30245;51.966;6.292;2023-07-20T13:42:02;29.40;33.40
44537;DHT22;30245;51.966;6.292;2023-07-20T13:44:30;29.50;33.60
44537;DHT22;30245;51.966;6.292;2023-07-20T13:46:56;29.90;33.30
44537;DHT22;30245;51.966;6.292;2023-07-20T13:49:23;30.50;32.80
44537;DHT22;30245;51.966;6.292;2023-07-20T13:51:48;31.10;32.30
44537;DHT22;30245;51.966;6.292;2023-07-20T13:54:14;31.60;32.00
44537;DHT22;30245;51.966;6.292;2023-07-20T13:56:39;31.90;31.70
44537;DHT22;30245;51.966;6.292;2023-07-20T13:59:05;32.00;31.50
44537;DHT22;30245;51.966;6.292;2023-07-20T14:01:31;32.20;31.30
44537;DHT22;30245;51.966;6.292;2023-07-20T14:03:59;32.30;31.30
44537;DHT22;30245;51.966;6.292;2023-07-20T14:06:25;32.20;31.20
44537;DHT22;30245;51.966;6.292;2023-07-20T14:08:51;32.10;31.20
44537;DHT22;30245;51.966;6.292;2023-07-20T14:11:18;32.00;31.30
44537;DHT22;30245;51.966;6.292;2023-07-20T14:13:44;31.90;31.30
44537;DHT22;30245;51.966;6.292;2023-07-20T14:16:10;31.70;31.30
44537;DHT22;30245;51.966;6.292;2023-07-20T14:18:36;31.50;31.30
44537;DHT22;30245;51.966;6.292;2023-07-20T14:21:02;31.40;31.50
44537;DHT22;30245;51.966;6.292;2023-07-20T14:23:29;31.30;31.60
44537;DHT22;30245;51.966;6.292;2023-07-20T14:25:54;31.20;31.70
44537;DHT22;30245;51.966;6.292;2023-07-20T14:28:21;31.10;31.80
44537;DHT22;30245;51.966;6.292;2023-07-20T14:30:46;31.00;32.00
44537;DHT22;30245;51.966;6.292;2023-07-20T14:33:12;30.90;32.30
44537;DHT22;30245;51.966;6.292;2023-07-20T14:35:38;30.90;32.40
44537;DHT22;30245;51.966;6.292;2023-07-20T14:38:03;30.70;32.50
44537;DHT22;30245;51.966;6.292;2023-07-20T14:40:29;30.50;32.70
44537;DHT22;30245;51.966;6.292;2023-07-20T14:42:57;30.40;32.90
44537;DHT22;30245;51.966;6.292;2023-07-20T14:45:24;30.30;33.20
44537;DHT22;30245;51.966;6.292;2023-07-20T14:47:50;30.20;33.20
44537;DHT22;30245;51.966;6.292;2023-07-20T14:50:19;30.20;33.30
44537;DHT22;30245;51.966;6.292;2023-07-20T14:52:46;30.20;33.20
44537;DHT22;30245;51.966;6.292;2023-07-20T14:55:11;30.10;33.20
44537;DHT22;30245;51.966;6.292;2023-07-20T14:57:37;30.10;33.90
44537;DHT22;30245;51.966;6.292;2023-07-20T15:00:04;30.00;33.30
44537;DHT22;30245;51.966;6.292;2023-07-20T15:02:33;30.00;33.30
44537;DHT22;30245;51.966;6.292;2023-07-20T15:04:59;29.90;33.30
44537;DHT22;30245;51.966;6.292;2023-07-20T15:07:25;29.80;33.30
44537;DHT22;30245;51.966;6.292;2023-07-20T15:09:51;29.80;33.40
44537;DHT22;30245;51.966;6.292;2023-07-20T15:12:16;29.90;33.40
44537;DHT22;30245;51.966;6.292;2023-07-20T15:14:43;29.90;33.40
44537;DHT22;30245;51.966;6.292;2023-07-20T15:17:09;30.00;33.40
44537;DHT22;30245;51.966;6.292;2023-07-20T15:19:35;30.00;33.30
44537;DHT22;30245;51.966;6.292;2023-07-20T15:22:02;30.10;33.20
44537;DHT22;30245;51.966;6.292;2023-07-20T15:24:29;30.30;33.80
44537;DHT22;30245;51.966;6.292;2023-07-20T15:26:54;30.70;32.70
44537;DHT22;30245;51.966;6.292;2023-07-20T15:29:20;31.30;32.20
44537;DHT22;30245;51.966;6.292;2023-07-20T15:31:47;31.70;31.70
44537;DHT22;30245;51.966;6.292;2023-07-20T15:34:13;31.90;31.40
44537;DHT22;30245;51.966;6.292;2023-07-20T15:36:40;31.80;31.50
44537;DHT22;30245;51.966;6.292;2023-07-20T15:39:06;31.50;31.60